sensor_id;sensor_type;location;lat;lon;timestamp;temperature;humidity
8965;DHT22;4517;49.020;12.066;2023-06-10T00:01:52;15.70;99.90
8965;DHT22;4517;49.020;12.066;2023-06-10T00:04:20;15.80;99.90
8965;DHT22;4517;49.020;12.066;2023-06-10T00:06:46;15.70;99.90
8965;DHT22;4517;49.020;12.066;2023-06-10T00:09:14;15.70;99.90
8965;DHT22;4517;49.020;12.066;2023-06-10T00:11:40;15.70;99.90
8965;DHT22;4517;49.020;12.066;2023-06-10T00:14:06;15.60;99.90
8965;DHT22;4517;49.020;12.066;2023-06-10T00:16:32;15.50;99.90
8965;DHT22;4517;49.020;12.066;2023-06-10T00:18:59;15.50;99.90
8965;DHT22;4517;49.020;12.066;2023-06-10T00:21:29;15.60;99.90
8965;DHT22;4517;49.020;12.066;2023-06-10T00:23:56;15.70;99.90
8965;DHT22;4517;49.020;12.066;2023-06-10T00:26:22;15.90;99.90
8965;DHT22;4517;49.020;12.066;2023-06-10T00:28:48;16.00;99.90
8965;DHT22;4517;49.020;12.066;2023-06-10T00:31:14;16.10;99.90
8965;DHT22;4517;49.020;12.066;2023-06-10T00:33:39;15.90;99.90
8965;DHT22;4517;49.020;12.066;2023-06-10T00:36:05;15.90;99.90
8965;DHT22;4517;49.020;12.066;2023-06-10T00:38:31;15.70;99.90
8965;DHT22;4517;49.020;12.066;2023-06-10T00:40:57;15.50;99.90
8965;DHT22;4517;49.020;12.066;2023-06-10T00:43:22;15.30;99.90
8965;DHT22;4517;49.020;12.066;2023-06-10T00:45:48;15.20;99.90
8965;DHT22;4517;49.020;12.066;2023-06-10T00:48:14;15.00;99.90
8965;DHT22;4517;49.020;12.066;2023-06-10T00:50:39;14.90;99.90
8965;DHT22;4517;49.020;12.066;2023-06-10T00:53:05;14.90;99.90
8965;DHT22;4517;49.020;12.066;2023-06-10T00:55:32;15.00;99.90
8965;DHT22;4517;49.020;12.066;2023-06-10T00:57:58;14.90;99.90
8965;DHT22;4517;49.020;12.066;2023-06-10T01:00:24;14.80;99.90
8965;DHT22;4517;49.020;12.066;2023-06-10T01:02:49;14.70;99.90
8965;DHT22;4517;49.020;12.066;2023-06-10T01:05:17;14.60;99.90
8965;DHT22;4517;49.020;12.066;2023-06-10T01:10:43;14.50;99.90
8965;DHT22;4517;49.020;12.066;2023-06-10T01:13:11;14.40;99.90
8965;DHT22;4517;49.020;12.066;2023-06-10T01:15:38;14.30;99.90
8965;DHT22;4517;49.020;12.066;2023-06-10T01:18:05;14.30;99.90
8965;DHT22;4517;49.020;12.066;2023-06-10T01:20:36;14.50;99.90
8965;DHT22;4517;49.020;12.066;2023-06-10T01:23:05;14.60;99.90
8965;DHT22;4517;49.020;12.066;2023-06-10T01:25:31;14.60;99.90
8965;DHT22;4517;49.020;12.066;2023-06-10T01:28:14;14.50;99.90
8965;DHT22;4517;49.020;12.066;2023-06-10T01:30:50;14.50;99.90
8965;DHT22;4517;49.020;12.066;2023-06-10T01:33:26;14.70;99.90
8965;DHT22;4517;49.020;12.066;2023-06-10T01:35:53;14.60;99.90
8965;DHT22;4517;49.020;12.066;2023-06-10T01:38:19;14.50;99.90
8965;DHT22;4517;49.020;12.066;2023-06-10T01:40:46;14.50;99.90
8965;DHT22;4517;49.020;12.066;2023-06-10T01:43:13;14.40;99.90
8965;DHT22;4517;49.020;12.066;2023-06-10T01:45:39;14.20;99.90
8965;DHT22;4517;49.020;12.066;2023-06-10T01:48:05;14.10;99.90
8965;DHT22;4517;49.020;12.066;2023-06-10T01:50:30;14.10;99.90
8965;DHT22;4517;49.020;12.066;2023-06-10T01:52:57;14.30;99.90
8965;DHT22;4517;49.020;12.066;2023-06-10T01:55:23;14.50;99.90
8965;DHT22;4517;49.020;12.066;2023-06-10T01:57:48;14.60;99.90
8965;DHT22;4517;49.020;12.066;2023-06-10T02:00:14;14.60;99.90
8965;DHT22;4517;49.020;12.066;2023-06-10T02:02:40;14.50;99.90
8965;DHT22;4517;49.020;12.066;2023-06-10T02:05:06;14.40;99.90
8965;DHT22;4517;49.020;12.066;2023-06-10T02:07:32;14.30;99.90
8965;DHT22;4517;49.020;12.066;2023-06-10T02:09:57;14.20;99.90
8965;DHT22;4517;49.020;12.066;2023-06-10T02:12:23;14.10;99.90
8965;DHT22;4517;49.020;12.066;2023-06-10T02:14:48;14.00;99.90
8965;DHT22;4517;49.020;12.066;2023-06-10T02:17:14;14.00;99.90
8965;DHT22;4517;49.020;12.066;2023-06-10T02:19:40;14.00;99.90
8965;DHT22;4517;49.020;12.066;2023-06-10T02:22:08;13.90;99.90
8965;DHT22;4517;49.020;12.066;2023-06-10T02:24:35;13.90;99.90
8965;DHT22;4517;49.020;12.066;2023-06-10T02:27:02;14.00;99.90
8965;DHT22;4517;49.020;12.066;2023-06-10T02:29:28;14.00;99.90
8965;DHT22;4517;49.020;12.066;2023-06-10T02:31:54;13.90;99.90
8965;DHT22;4517;49.020;12.066;2023-06-10T02:34:20;13.90;99.90
8965;DHT22;4517;49.020;12.066;2023-06-10T02:36:46;13.90;99.90
8965;DHT22;4517;49.020;12.066;2023-06-10T02:39:14;14.10;99.90
8965;DHT22;4517;49.020;12.066;2023-06-10T02:41:39;14.10;99.90
8965;DHT22;4517;49.020;12.066;2023-06-10T02:44:05;14.20;99.90
8965;DHT22;4517;49.020;12.066;2023-06-10T02:46:30;14.10;99.90
8965;DHT22;4517;49.020;12.066;2023-06-10T02:48:57;14.00;99.90
8965;DHT22;4517;49.020;12.066;2023-06-10T02:51:22;13.90;99.90
8965;DHT22;4517;49.020;12.066;2023-06-10T02:53:48;13.90;99.90
8965;DHT22;4517;49.020;12.066;2023-06-10T02:56:16;13.80;99.90
8965;DHT22;4517;49.020;12.066;2023-06-10T02:58:42;13.70;99.90
8965;DHT22;4517;49.020;12.066;2023-06-10T03:01:07;13.70;99.90
8965;DHT22;4517;49.020;12.066;2023-06-10T03:03:34;13.60;99.90
8965;DHT22;4517;49.020;12.066;2023-06-10T03:06:02;13.70;99.90
8965;DHT22;4517;49.020;12.066;2023-06-10T03:08:28;13.70;99.90
8965;DHT22;4517;49.020;12.066;2023-06-10T03:10:54;13.70;99.90
8965;DHT22;4517;49.020;12.066;2023-06-10T03:13:19;13.70;99.90
8965;DHT22;4517;49.020;12.066;2023-06-10T03:15:45;13.70;99.90
8965;DHT22;4517;49.020;12.066;2023-06-10T03:18:11;13.80;99.90
8965;DHT22;4517;49.020;12.066;2023-06-10T03:20:37;13.70;99.90
8965;DHT22;4517;49.020;12.066;2023-06-10T03:23:04;13.80;99.90
8965;DHT22;4517;49.020;12.066;2023-06-10T03:25:31;13.90;99.90
8965;DHT22;4517;49.020;12.066;2023-06-10T03:27:57;14.00;99.90
8965;DHT22;4517;49.020;12.066;2023-06-10T03:30:22;13.90;99.90
8965;DHT22;4517;49.020;12.066;2023-06-10T03:32:48;14.00;99.90
8965;DHT22;4517;49.020;12.066;2023-06-10T03:35:14;14.20;99.90
8965;DHT22;4517;49.020;12.066;2023-06-10T03:37:40;15.00;99.90
8965;DHT22;4517;49.020;12.066;2023-06-10T03:40:07;15.60;99.90
8965;DHT22;4517;49.020;12.066;2023-06-10T03:42:34;15.40;99.90
8965;DHT22;4517;49.020;12.066;2023-06-10T03:45:00;15.30;99.90
8965;DHT22;4517;49.020;12.066;2023-06-10T03:47:26;15.10;99.90
8965;DHT22;4517;49.020;12.066;2023-06-10T03:49:51;15.10;99.90
8965;DHT22;4517;49.020;12.066;2023-06-10T03:52:18;15.00;99.90
8965;DHT22;4517;49.020;12.066;2023-06-10T03:54:43;14.90;99.90
8965;DHT22;4517;49.020;12.066;2023-06-10T03:57:09;15.00;99.90
8965;DHT22;4517;49.020;12.066;2023-06-10T03:59:35;15.80;99.90
8965;DHT22;4517;49.020;12.066;2023-06-10T04:02:00;16.90;99.90
8965;DHT22;4517;49.020;12.066;2023-06-10T04:04:26;17.20;99.90
8965;DHT22;4517;49.020;12.066;2023-06-10T04:06:52;17.40;99.90
8965;DHT22;4517;49.020;12.066;2023-06-10T04:09:18;18.80;99.90
8965;DHT22;4517;49.020;12.066;2023-06-10T04:11:43;19.10;99.90
8965;DHT22;4517;49.020;12.066;2023-06-10T04:14:09;19.00;99.90
8965;DHT22;4517;49.020;12.066;2023-06-10T04:16:34;18.30;99.90
8965;DHT22;4517;49.020;12.066;2023-06-10T04:19:00;18.80;99.90
8965;DHT22;4517;49.020;12.066;2023-06-10T04:21:26;20.60;99.80
8965;DHT22;4517;49.020;12.066;2023-06-10T04:23:52;22.30;95.60
8965;DHT22;4517;49.020;12.066;2023-06-10T04:26:18;23.70;91.20
8965;DHT22;4517;49.020;12.066;2023-06-10T04:28:44;25.30;87.00
8965;DHT22;4517;49.020;12.066;2023-06-10T04:31:09;26.70;81.20
8965;DHT22;4517;49.020;12.066;2023-06-10T04:33:35;26.50;76.10
8965;DHT22;4517;49.020;12.066;2023-06-10T04:36:01;27.10;74.40
8965;DHT22;4517;49.020;12.066;2023-06-10T04:38:27;28.20;71.60
8965;DHT22;4517;49.020;12.066;2023-06-10T04:40:52;29.10;68.00
8965;DHT22;4517;49.020;12.066;2023-06-10T04:43:18;27.10;69.10
8965;DHT22;4517;49.020;12.066;2023-06-10T04:45:44;27.70;68.70
8965;DHT22;4517;49.020;12.066;2023-06-10T04:48:12;28.40;66.50
8965;DHT22;4517;49.020;12.066;2023-06-10T04:50:39;27.90;66.10
8965;DHT22;4517;49.020;12.066;2023-06-10T04:53:04;28.00;66.80
8965;DHT22;4517;49.020;12.066;2023-06-10T04:55:31;27.50;65.90
8965;DHT22;4517;49.020;12.066;2023-06-10T04:57:57;26.90;67.70
8965;DHT22;4517;49.020;12.066;2023-06-10T05:00:22;28.00;65.70
8965;DHT22;4517;49.020;12.066;2023-06-10T05:02:48;27.40;65.30
8965;DHT22;4517;49.020;12.066;2023-06-10T05:05:16;27.00;66.30
8965;DHT22;4517;49.020;12.066;2023-06-10T05:07:42;27.30;66.00
8965;DHT22;4517;49.020;12.066;2023-06-10T05:10:08;26.60;67.00
8965;DHT22;4517;49.020;12.066;2023-06-10T05:12:33;27.50;66.80
8965;DHT22;4517;49.020;12.066;2023-06-10T05:14:59;27.00;67.10
8965;DHT22;4517;49.020;12.066;2023-06-10T05:17:24;27.10;67.30
8965;DHT22;4517;49.020;12.066;2023-06-10T05:19:51;27.60;67.80
8965;DHT22;4517;49.020;12.066;2023-06-10T05:22:16;26.60;66.70
8965;DHT22;4517;49.020;12.066;2023-06-10T05:24:43;24.70;70.70
8965;DHT22;4517;49.020;12.066;2023-06-10T05:27:09;25.80;70.10
8965;DHT22;4517;49.020;12.066;2023-06-10T05:29:35;26.40;68.10
8965;DHT22;4517;49.020;12.066;2023-06-10T05:32:01;25.50;70.60
8965;DHT22;4517;49.020;12.066;2023-06-10T05:34:29;25.40;71.10
8965;DHT22;4517;49.020;12.066;2023-06-10T05:36:54;26.70;68.90
8965;DHT22;4517;49.020;12.066;2023-06-10T05:39:20;27.30;67.20
8965;DHT22;4517;49.020;12.066;2023-06-10T05:41:46;25.60;68.00
8965;DHT22;4517;49.020;12.066;2023-06-10T05:44:11;24.80;70.50
8965;DHT22;4517;49.020;12.066;2023-06-10T05:46:37;25.10;69.50
8965;DHT22;4517;49.020;12.066;2023-06-10T05:49:03;24.80;70.00
8965;DHT22;4517;49.020;12.066;2023-06-10T05:51:28;24.30;71.30
8965;DHT22;4517;49.020;12.066;2023-06-10T05:53:54;24.30;71.40
8965;DHT22;4517;49.020;12.066;2023-06-10T05:56:20;23.50;73.10
8965;DHT22;4517;49.020;12.066;2023-06-10T05:58:48;24.20;73.40
8965;DHT22;4517;49.020;12.066;2023-06-10T06:01:13;24.90;71.90
8965;DHT22;4517;49.020;12.066;2023-06-10T06:03:39;24.50;71.20
8965;DHT22;4517;49.020;12.066;2023-06-10T06:06:04;24.40;71.40
8965;DHT22;4517;49.020;12.066;2023-06-10T06:08:30;25.10;71.60
8965;DHT22;4517;49.020;12.066;2023-06-10T06:10:56;25.30;70.40
8965;DHT22;4517;49.020;12.066;2023-06-10T06:13:22;25.40;70.20
8965;DHT22;4517;49.020;12.066;2023-06-10T06:15:48;25.10;71.00
8965;DHT22;4517;49.020;12.066;2023-06-10T06:18:13;24.30;72.00
8965;DHT22;4517;49.020;12.066;2023-06-10T06:20:40;24.50;71.80
8965;DHT22;4517;49.020;12.066;2023-06-10T06:23:06;24.20;72.90
8965;DHT22;4517;49.020;12.066;2023-06-10T06:25:33;23.90;73.00
8965;DHT22;4517;49.020;12.066;2023-06-10T06:28:01;23.90;73.60
8965;DHT22;4517;49.020;12.066;2023-06-10T06:30:26;24.10;73.20
8965;DHT22;4517;49.020;12.066;2023-06-10T06:32:52;24.40;73.30
8965;DHT22;4517;49.020;12.066;2023-06-10T06:35:18;24.60;72.30
8965;DHT22;4517;49.020;12.066;2023-06-10T06:37:44;24.00;72.70
8965;DHT22;4517;49.020;12.066;2023-06-10T06:40:10;24.20;72.50
8965;DHT22;4517;49.020;12.066;2023-06-10T06:42:35;23.70;73.30
8965;DHT22;4517;49.020;12.066;2023-06-10T06:45:01;23.70;73.70
8965;DHT22;4517;49.020;12.066;2023-06-10T06:47:26;23.80;73.10
8965;DHT22;4517;49.020;12.066;2023-06-10T06:49:52;24.10;72.20
8965;DHT22;4517;49.020;12.066;2023-06-10T06:52:18;24.30;71.00
8965;DHT22;4517;49.020;12.066;2023-06-10T06:54:44;24.30;71.30
8965;DHT22;4517;49.020;12.066;2023-06-10T06:57:10;24.70;71.20
8965;DHT22;4517;49.020;12.066;2023-06-10T06:59:36;24.30;71.90
8965;DHT22;4517;49.020;12.066;2023-06-10T07:02:02;24.80;71.40
8965;DHT22;4517;49.020;12.066;2023-06-10T07:04:27;25.60;70.80
8965;DHT22;4517;49.020;12.066;2023-06-10T07:06:54;26.50;69.10
8965;DHT22;4517;49.020;12.066;2023-06-10T07:09:19;25.40;68.90
8965;DHT22;4517;49.020;12.066;2023-06-10T07:11:45;24.80;69.50
8965;DHT22;4517;49.020;12.066;2023-06-10T07:14:10;24.60;70.40
8965;DHT22;4517;49.020;12.066;2023-06-10T07:16:36;23.50;70.90
8965;DHT22;4517;49.020;12.066;2023-06-10T07:19:02;23.00;72.60
8965;DHT22;4517;49.020;12.066;2023-06-10T07:21:29;22.60;73.60
8965;DHT22;4517;49.020;12.066;2023-06-10T07:23:55;22.80;73.80
8965;DHT22;4517;49.020;12.066;2023-06-10T07:26:23;22.90;73.80
8965;DHT22;4517;49.020;12.066;2023-06-10T07:28:49;23.10;73.80
8965;DHT22;4517;49.020;12.066;2023-06-10T07:31:15;22.90;72.40
8965;DHT22;4517;49.020;12.066;2023-06-10T07:33:40;23.10;73.30
8965;DHT22;4517;49.020;12.066;2023-06-10T07:36:07;22.80;72.40
8965;DHT22;4517;49.020;12.066;2023-06-10T07:38:32;22.50;73.10
8965;DHT22;4517;49.020;12.066;2023-06-10T07:40:59;22.30;72.90
8965;DHT22;4517;49.020;12.066;2023-06-10T07:43:25;22.30;74.10
8965;DHT22;4517;49.020;12.066;2023-06-10T07:45:51;22.00;73.20
8965;DHT22;4517;49.020;12.066;2023-06-10T07:48:16;22.00;73.70
8965;DHT22;4517;49.020;12.066;2023-06-10T07:50:42;22.10;73.80
8965;DHT22;4517;49.020;12.066;2023-06-10T07:53:07;22.20;74.50
8965;DHT22;4517;49.020;12.066;2023-06-10T07:55:33;22.40;73.90
8965;DHT22;4517;49.020;12.066;2023-06-10T07:57:58;22.40;73.60
8965;DHT22;4517;49.020;12.066;2023-06-10T08:00:24;22.40;73.80
8965;DHT22;4517;49.020;12.066;2023-06-10T08:02:49;22.70;73.70
8965;DHT22;4517;49.020;12.066;2023-06-10T08:05:15;22.60;73.40
8965;DHT22;4517;49.020;12.066;2023-06-10T08:07:42;22.60;73.10
8965;DHT22;4517;49.020;12.066;2023-06-10T08:10:08;22.60;73.00
8965;DHT22;4517;49.020;12.066;2023-06-10T08:12:35;22.50;73.20
8965;DHT22;4517;49.020;12.066;2023-06-10T08:15:01;22.70;73.20
8965;DHT22;4517;49.020;12.066;2023-06-10T08:17:27;23.00;73.00
8965;DHT22;4517;49.020;12.066;2023-06-10T08:19:53;22.90;72.30
8965;DHT22;4517;49.020;12.066;2023-06-10T08:22:18;22.80;72.70
8965;DHT22;4517;49.020;12.066;2023-06-10T08:24:44;22.80;72.50
8965;DHT22;4517;49.020;12.066;2023-06-10T08:27:09;22.80;72.40
8965;DHT22;4517;49.020;12.066;2023-06-10T08:29:35;22.40;71.80
8965;DHT22;4517;49.020;12.066;2023-06-10T08:32:01;22.90;72.30
8965;DHT22;4517;49.020;12.066;2023-06-10T08:34:27;23.60;71.50
8965;DHT22;4517;49.020;12.066;2023-06-10T08:36:53;24.00;70.70
8965;DHT22;4517;49.020;12.066;2023-06-10T08:39:21;24.40;68.50
8965;DHT22;4517;49.020;12.066;2023-06-10T08:42:14;24.20;68.60
8965;DHT22;4517;49.020;12.066;2023-06-10T08:44:42;24.10;68.80
8965;DHT22;4517;49.020;12.066;2023-06-10T08:47:13;24.00;68.40
8965;DHT22;4517;49.020;12.066;2023-06-10T08:49:45;23.80;68.50
8965;DHT22;4517;49.020;12.066;2023-06-10T08:52:16;23.80;69.40
8965;DHT22;4517;49.020;12.066;2023-06-10T08:55:03;24.30;69.00
8965;DHT22;4517;49.020;12.066;2023-06-10T08:57:30;24.40;68.30
8965;DHT22;4517;49.020;12.066;2023-06-10T08:59:57;24.40;68.50
8965;DHT22;4517;49.020;12.066;2023-06-10T09:02:24;24.20;68.40
8965;DHT22;4517;49.020;12.066;2023-06-10T09:04:50;24.20;68.80
8965;DHT22;4517;49.020;12.066;2023-06-10T09:07:17;24.40;69.10
8965;DHT22;4517;49.020;12.066;2023-06-10T09:09:45;24.80;68.90
8965;DHT22;4517;49.020;12.066;2023-06-10T09:12:12;25.20;68.20
8965;DHT22;4517;49.020;12.066;2023-06-10T09:14:38;25.50;67.20
8965;DHT22;4517;49.020;12.066;2023-06-10T09:17:04;25.90;67.30
8965;DHT22;4517;49.020;12.066;2023-06-10T09:19:30;26.30;67.20
8965;DHT22;4517;49.020;12.066;2023-06-10T09:21:56;26.60;65.10
8965;DHT22;4517;49.020;12.066;2023-06-10T09:24:22;26.80;64.30
8965;DHT22;4517;49.020;12.066;2023-06-10T09:26:49;26.70;63.60
8965;DHT22;4517;49.020;12.066;2023-06-10T09:29:16;26.30;64.10
8965;DHT22;4517;49.020;12.066;2023-06-10T09:31:43;26.20;64.20
8965;DHT22;4517;49.020;12.066;2023-06-10T09:34:11;26.00;64.70
8965;DHT22;4517;49.020;12.066;2023-06-10T09:36:37;26.00;64.90
8965;DHT22;4517;49.020;12.066;2023-06-10T09:39:04;25.60;65.70
8965;DHT22;4517;49.020;12.066;2023-06-10T09:41:34;25.80;65.90
8965;DHT22;4517;49.020;12.066;2023-06-10T09:44:00;25.80;64.60
8965;DHT22;4517;49.020;12.066;2023-06-10T09:46:30;26.00;64.70
8965;DHT22;4517;49.020;12.066;2023-06-10T09:48:59;26.70;63.50
8965;DHT22;4517;49.020;12.066;2023-06-10T09:51:25;26.70;61.80
8965;DHT22;4517;49.020;12.066;2023-06-10T09:53:51;25.90;63.10
8965;DHT22;4517;49.020;12.066;2023-06-10T09:56:17;25.50;64.50
8965;DHT22;4517;49.020;12.066;2023-06-10T09:58:44;25.30;65.00
8965;DHT22;4517;49.020;12.066;2023-06-10T10:01:12;25.60;65.10
8965;DHT22;4517;49.020;12.066;2023-06-10T10:03:50;26.00;65.20
8965;DHT22;4517;49.020;12.066;2023-06-10T10:06:17;26.20;63.60
8965;DHT22;4517;49.020;12.066;2023-06-10T10:08:46;25.90;64.10
8965;DHT22;4517;49.020;12.066;2023-06-10T10:11:14;25.80;63.70
8965;DHT22;4517;49.020;12.066;2023-06-10T10:13:41;25.70;64.50
8965;DHT22;4517;49.020;12.066;2023-06-10T10:16:12;26.00;64.90
8965;DHT22;4517;49.020;12.066;2023-06-10T10:18:50;25.90;64.80
8965;DHT22;4517;49.020;12.066;2023-06-10T10:21:22;25.80;65.70
8965;DHT22;4517;49.020;12.066;2023-06-10T10:24:07;25.70;65.60
8965;DHT22;4517;49.020;12.066;2023-06-10T10:26:36;25.60;65.50
8965;DHT22;4517;49.020;12.066;2023-06-10T10:32:11;24.60;67.20
8965;DHT22;4517;49.020;12.066;2023-06-10T10:34:49;24.60;68.80
8965;DHT22;4517;49.020;12.066;2023-06-10T10:37:17;25.10;68.30
8965;DHT22;4517;49.020;12.066;2023-06-10T10:39:45;25.40;67.40
8965;DHT22;4517;49.020;12.066;2023-06-10T10:42:11;25.60;66.70
8965;DHT22;4517;49.020;12.066;2023-06-10T10:44:38;25.80;66.50
8965;DHT22;4517;49.020;12.066;2023-06-10T10:47:06;26.00;65.90
8965;DHT22;4517;49.020;12.066;2023-06-10T10:49:33;26.20;65.40
8965;DHT22;4517;49.020;12.066;2023-06-10T10:52:01;26.50;64.40
8965;DHT22;4517;49.020;12.066;2023-06-10T10:54:33;26.20;64.80
8965;DHT22;4517;49.020;12.066;2023-06-10T10:57:13;25.80;64.90
8965;DHT22;4517;49.020;12.066;2023-06-10T10:59:53;25.60;65.50
8965;DHT22;4517;49.020;12.066;2023-06-10T11:02:52;25.40;66.50
8965;DHT22;4517;49.020;12.066;2023-06-10T11:05:32;25.20;67.40
8965;DHT22;4517;49.020;12.066;2023-06-10T11:08:00;25.00;69.10
8965;DHT22;4517;49.020;12.066;2023-06-10T11:10:51;25.00;69.90
8965;DHT22;4517;49.020;12.066;2023-06-10T11:13:20;25.00;68.10
8965;DHT22;4517;49.020;12.066;2023-06-10T11:15:48;25.00;69.60
8965;DHT22;4517;49.020;12.066;2023-06-10T11:23:41;26.50;66.70
8965;DHT22;4517;49.020;12.066;2023-06-10T11:26:10;26.90;64.30
8965;DHT22;4517;49.020;12.066;2023-06-10T11:28:36;26.60;64.40
8965;DHT22;4517;49.020;12.066;2023-06-10T11:31:02;27.00;63.60
8965;DHT22;4517;49.020;12.066;2023-06-10T11:33:27;26.60;63.60
8965;DHT22;4517;49.020;12.066;2023-06-10T11:35:54;26.30;63.40
8965;DHT22;4517;49.020;12.066;2023-06-10T11:38:19;26.10;64.20
8965;DHT22;4517;49.020;12.066;2023-06-10T11:40:51;25.50;65.70
8965;DHT22;4517;49.020;12.066;2023-06-10T11:43:17;25.80;65.10
8965;DHT22;4517;49.020;12.066;2023-06-10T11:45:43;26.10;65.00
8965;DHT22;4517;49.020;12.066;2023-06-10T11:48:10;26.20;65.30
8965;DHT22;4517;49.020;12.066;2023-06-10T11:50:36;25.90;64.70
8965;DHT22;4517;49.020;12.066;2023-06-10T11:53:02;25.40;66.30
8965;DHT22;4517;49.020;12.066;2023-06-10T11:55:43;25.60;67.50
8965;DHT22;4517;49.020;12.066;2023-06-10T11:58:31;25.80;68.20
8965;DHT22;4517;49.020;12.066;2023-06-10T12:00:56;25.70;67.60
8965;DHT22;4517;49.020;12.066;2023-06-10T12:03:24;26.00;66.80
8965;DHT22;4517;49.020;12.066;2023-06-10T12:06:01;26.10;65.60
8965;DHT22;4517;49.020;12.066;2023-06-10T12:08:27;26.70;65.00
8965;DHT22;4517;49.020;12.066;2023-06-10T12:10:53;26.60;64.50
8965;DHT22;4517;49.020;12.066;2023-06-10T12:13:18;26.60;63.30
8965;DHT22;4517;49.020;12.066;2023-06-10T12:15:44;27.00;63.00
8965;DHT22;4517;49.020;12.066;2023-06-10T12:18:24;27.60;62.40
8965;DHT22;4517;49.020;12.066;2023-06-10T12:20:50;28.10;61.50
8965;DHT22;4517;49.020;12.066;2023-06-10T12:23:17;28.30;61.30
8965;DHT22;4517;49.020;12.066;2023-06-10T12:25:53;28.60;59.90
8965;DHT22;4517;49.020;12.066;2023-06-10T12:28:23;29.30;59.60
8965;DHT22;4517;49.020;12.066;2023-06-10T12:30:50;28.90;58.90
8965;DHT22;4517;49.020;12.066;2023-06-10T12:33:19;28.90;58.90
8965;DHT22;4517;49.020;12.066;2023-06-10T12:38:14;29.40;57.70
8965;DHT22;4517;49.020;12.066;2023-06-10T12:40:47;29.10;57.20
8965;DHT22;4517;49.020;12.066;2023-06-10T12:43:12;28.80;58.00
8965;DHT22;4517;49.020;12.066;2023-06-10T12:45:39;28.40;58.40
8965;DHT22;4517;49.020;12.066;2023-06-10T12:48:10;28.30;58.50
8965;DHT22;4517;49.020;12.066;2023-06-10T12:50:41;27.80;59.00
8965;DHT22;4517;49.020;12.066;2023-06-10T12:53:08;27.80;59.30
8965;DHT22;4517;49.020;12.066;2023-06-10T12:55:34;27.70;59.60
8965;DHT22;4517;49.020;12.066;2023-06-10T12:58:00;27.50;59.40
8965;DHT22;4517;49.020;12.066;2023-06-10T13:00:27;27.50;59.00
8965;DHT22;4517;49.020;12.066;2023-06-10T13:02:55;27.10;59.30
8965;DHT22;4517;49.020;12.066;2023-06-10T13:05:21;27.00;59.40
8965;DHT22;4517;49.020;12.066;2023-06-10T13:07:47;27.10;59.90
8965;DHT22;4517;49.020;12.066;2023-06-10T13:10:13;27.70;59.70
8965;DHT22;4517;49.020;12.066;2023-06-10T13:12:39;27.80;59.30
8965;DHT22;4517;49.020;12.066;2023-06-10T13:15:06;27.10;59.60
8965;DHT22;4517;49.020;12.066;2023-06-10T13:17:31;27.50;59.40
8965;DHT22;4517;49.020;12.066;2023-06-10T13:19:59;27.00;59.90
8965;DHT22;4517;49.020;12.066;2023-06-10T13:22:26;27.60;59.30
8965;DHT22;4517;49.020;12.066;2023-06-10T13:24:52;27.90;59.40
8965;DHT22;4517;49.020;12.066;2023-06-10T13:27:17;27.60;59.30
8965;DHT22;4517;49.020;12.066;2023-06-10T13:29:43;27.20;59.00
8965;DHT22;4517;49.020;12.066;2023-06-10T13:32:11;27.30;58.50
8965;DHT22;4517;49.020;12.066;2023-06-10T13:34:37;26.90;58.90
8965;DHT22;4517;49.020;12.066;2023-06-10T13:37:03;26.60;59.70
8965;DHT22;4517;49.020;12.066;2023-06-10T13:39:30;26.70;61.50
8965;DHT22;4517;49.020;12.066;2023-06-10T13:41:55;26.90;63.10
8965;DHT22;4517;49.020;12.066;2023-06-10T13:44:21;27.00;62.80
8965;DHT22;4517;49.020;12.066;2023-06-10T13:46:46;27.10;62.60
8965;DHT22;4517;49.020;12.066;2023-06-10T13:49:12;27.20;60.70
8965;DHT22;4517;49.020;12.066;2023-06-10T13:51:38;26.40;69.40
8965;DHT22;4517;49.020;12.066;2023-06-10T13:54:03;20.90;99.90
8965;DHT22;4517;49.020;12.066;2023-06-10T13:56:29;19.30;99.90
8965;DHT22;4517;49.020;12.066;2023-06-10T13:58:54;19.20;99.90
8965;DHT22;4517;49.020;12.066;2023-06-10T14:01:20;18.70;99.90
8965;DHT22;4517;49.020;12.066;2023-06-10T14:03:46;18.70;99.90
8965;DHT22;4517;49.020;12.066;2023-06-10T14:06:11;18.90;99.90
8965;DHT22;4517;49.020;12.066;2023-06-10T14:08:44;19.20;99.90
8965;DHT22;4517;49.020;12.066;2023-06-10T14:11:09;19.80;99.90
8965;DHT22;4517;49.020;12.066;2023-06-10T14:13:35;20.40;99.90
8965;DHT22;4517;49.020;12.066;2023-06-10T14:16:03;20.40;99.90
8965;DHT22;4517;49.020;12.066;2023-06-10T14:18:29;20.20;99.90
8965;DHT22;4517;49.020;12.066;2023-06-10T14:20:54;20.10;99.90
8965;DHT22;4517;49.020;12.066;2023-06-10T14:23:20;20.60;99.90
8965;DHT22;4517;49.020;12.066;2023-06-10T14:25:45;21.10;99.90
8965;DHT22;4517;49.020;12.066;2023-06-10T14:28:11;21.40;99.90
8965;DHT22;4517;49.020;12.066;2023-06-10T14:30:36;20.70;99.90
8965;DHT22;4517;49.020;12.066;2023-06-10T14:33:02;20.50;99.90
8965;DHT22;4517;49.020;12.066;2023-06-10T14:35:28;21.00;99.90
8965;DHT22;4517;49.020;12.066;2023-06-10T14:37:53;20.70;99.90
8965;DHT22;4517;49.020;12.066;2023-06-10T14:40:19;20.80;99.90
8965;DHT22;4517;49.020;12.066;2023-06-10T14:42:46;20.40;99.90
8965;DHT22;4517;49.020;12.066;2023-06-10T14:45:12;20.40;99.90
8965;DHT22;4517;49.020;12.066;2023-06-10T14:47:38;20.70;99.90
8965;DHT22;4517;49.020;12.066;2023-06-10T14:50:04;21.00;99.90
8965;DHT22;4517;49.020;12.066;2023-06-10T14:52:29;20.10;99.90
8965;DHT22;4517;49.020;12.066;2023-06-10T14:54:55;20.20;99.90
8965;DHT22;4517;49.020;12.066;2023-06-10T14:57:20;20.10;99.90
8965;DHT22;4517;49.020;12.066;2023-06-10T14:59:46;19.80;99.90
8965;DHT22;4517;49.020;12.066;2023-06-10T15:02:12;20.20;99.90
8965;DHT22;4517;49.020;12.066;2023-06-10T15:04:37;19.90;99.90
8965;DHT22;4517;49.020;12.066;2023-06-10T15:07:03;20.40;99.90
8965;DHT22;4517;49.020;12.066;2023-06-10T15:09:28;20.80;99.90
8965;DHT22;4517;49.020;12.066;2023-06-10T15:11:54;21.30;99.90
8965;DHT22;4517;49.020;12.066;2023-06-10T15:14:20;21.50;99.90
8965;DHT22;4517;49.020;12.066;2023-06-10T15:16:46;21.80;99.90
8965;DHT22;4517;49.020;12.066;2023-06-10T15:19:11;22.10;99.90
8965;DHT22;4517;49.020;12.066;2023-06-10T15:21:37;21.50;99.90
8965;DHT22;4517;49.020;12.066;2023-06-10T15:24:03;21.40;99.90
8965;DHT22;4517;49.020;12.066;2023-06-10T15:26:29;21.10;99.90
8965;DHT22;4517;49.020;12.066;2023-06-10T15:28:54;21.40;99.90
8965;DHT22;4517;49.020;12.066;2023-06-10T15:31:20;21.00;99.90
8965;DHT22;4517;49.020;12.066;2023-06-10T15:33:46;20.90;99.90
8965;DHT22;4517;49.020;12.066;2023-06-10T15:36:11;21.10;99.90
8965;DHT22;4517;49.020;12.066;2023-06-10T15:38:39;21.10;99.90
8965;DHT22;4517;49.020;12.066;2023-06-10T15:41:04;21.00;99.90
8965;DHT22;4517;49.020;12.066;2023-06-10T15:43:30;20.80;99.90
8965;DHT22;4517;49.020;12.066;2023-06-10T15:45:56;20.70;99.90
8965;DHT22;4517;49.020;12.066;2023-06-10T15:48:22;21.00;99.90
8965;DHT22;4517;49.020;12.066;2023-06-10T15:50:47;20.50;99.90
8965;DHT22;4517;49.020;12.066;2023-06-10T15:53:13;20.30;99.90
8965;DHT22;4517;49.020;12.066;2023-06-10T15:55:39;19.90;99.90
8965;DHT22;4517;49.020;12.066;2023-06-10T15:58:04;20.10;99.90